Time;durP1;ratioP1;P1;durP2;ratioP2;P2;SDS_P1;SDS_P2;PMS_P1;PMS_P2;Temp;Humidity;BMP_temperature;BMP_pressure;BME280_temperature;BME280_humidity;BME280_pressure;Samples;Min_cycle;Max_cycle;Signal;HPM_P1;HPM_P2
2022/01/08 00:00:06;;;;;;;9.57;5.30;;;3.90;99.90;;;;;;5066425;28;20848;-80
2022/01/08 00:02:33;;;;;;;11.90;5.87;;;3.90;99.90;;;;;;5075559;28;20452;-82
2022/01/08 00:05:00;;;;;;;9.17;4.70;;;3.80;99.90;;;;;;5066636;28;20612;-81
2022/01/08 00:07:27;;;;;;;10.33;5.70;;;3.90;99.90;;;;;;5075978;28;20455;-81
2022/01/08 00:09:57;;;;;;;12.30;4.80;;;3.90;99.90;;;;;;5066089;28;20923;-80
2022/01/08 00:12:28;;;;;;;9.13;5.77;;;3.90;99.90;;;;;;5068072;28;20511;-81
2022/01/08 00:14:55;;;;;;;10.70;5.00;;;3.80;99.90;;;;;;5077650;28;20449;-81
2022/01/08 00:17:24;;;;;;;8.70;5.90;;;3.80;99.90;;;;;;5074277;28;20452;-79
2022/01/08 00:19:52;;;;;;;8.77;6.10;;;3.80;99.90;;;;;;5071736;28;20483;-80
2022/01/08 00:22:19;;;;;;;11.23;6.20;;;3.80;99.90;;;;;;5080667;28;20549;-81
2022/01/08 00:24:47;;;;;;;8.23;5.57;;;3.90;99.90;;;;;;5081805;28;20459;-82
2022/01/08 00:27:16;;;;;;;10.80;5.30;;;3.90;99.90;;;;;;5062233;28;20525;-82
2022/01/08 00:29:44;;;;;;;13.27;5.80;;;3.90;99.90;;;;;;5074631;28;20984;-80
2022/01/08 00:32:13;;;;;;;9.43;4.93;;;3.90;99.90;;;;;;5080022;28;20526;-80
2022/01/08 00:34:40;;;;;;;9.70;5.13;;;3.90;99.90;;;;;;5074798;28;20470;-80
2022/01/08 00:37:10;;;;;;;10.37;5.60;;;3.80;99.90;;;;;;5061927;28;20835;-80
2022/01/08 00:39:39;;;;;;;5.77;4.40;;;3.90;99.90;;;;;;5076160;28;20471;-81
2022/01/08 00:42:06;;;;;;;6.83;5.23;;;3.90;99.90;;;;;;5062763;28;20451;-81
2022/01/08 00:44:33;;;;;;;6.97;5.40;;;3.90;99.90;;;;;;5079904;28;20451;-81
2022/01/08 00:47:01;;;;;;;10.70;5.43;;;3.90;99.90;;;;;;5062322;28;20452;-80
2022/01/08 00:49:28;;;;;;;7.03;5.07;;;3.80;99.90;;;;;;5060101;28;20479;-80
2022/01/08 00:51:55;;;;;;;9.60;5.00;;;3.80;99.90;;;;;;5072465;28;20512;-81
2022/01/08 00:54:22;;;;;;;10.73;6.90;;;3.80;99.90;;;;;;5059275;28;20546;-81
2022/01/08 00:56:50;;;;;;;12.67;7.10;;;3.70;99.90;;;;;;5059209;28;20453;-82
2022/01/08 00:59:17;;;;;;;12.57;7.90;;;3.70;99.90;;;;;;5059802;28;20468;-81
2022/01/08 01:01:44;;;;;;;11.27;6.67;;;3.70;99.90;;;;;;5059281;28;20488;-80
2022/01/08 01:04:12;;;;;;;11.07;7.43;;;3.60;99.90;;;;;;5060216;28;20463;-80
2022/01/08 01:06:39;;;;;;;11.03;7.93;;;3.60;99.90;;;;;;5063605;28;20463;-79
2022/01/08 01:09:06;;;;;;;10.07;6.40;;;3.50;99.90;;;;;;5066297;28;20485;-81
2022/01/08 01:11:33;;;;;;;11.43;6.70;;;3.50;99.90;;;;;;5074829;28;20487;-80
2022/01/08 01:13:59;;;;;;;8.70;6.73;;;3.50;99.90;;;;;;5060032;28;20811;-80
2022/01/08 01:16:26;;;;;;;11.40;7.53;;;3.30;99.90;;;;;;5066770;28;20451;-80
2022/01/08 01:18:54;;;;;;;10.60;6.93;;;3.30;99.90;;;;;;5080088;28;21034;-81
2022/01/08 01:21:22;;;;;;;10.00;6.43;;;3.20;99.90;;;;;;5076583;28;20492;-81
2022/01/08 01:23:50;;;;;;;9.70;6.33;;;3.00;99.90;;;;;;5061794;28;20440;-82
2022/01/08 01:26:21;;;;;;;10.10;6.10;;;3.00;99.90;;;;;;5060943;28;20462;-80
2022/01/08 01:28:54;;;;;;;11.27;8.47;;;2.90;99.90;;;;;;5066899;28;20555;-79
2022/01/08 01:48:00;;;;;;;12.97;7.47;;;2.60;99.90;;;;;;5067330;28;20501;-80
2022/01/08 01:50:27;;;;;;;11.97;8.57;;;2.50;99.90;;;;;;5061811;28;20480;-79
2022/01/08 01:52:55;;;;;;;11.23;8.50;;;2.40;99.90;;;;;;5058184;28;20452;-80
2022/01/08 01:55:22;;;;;;;13.43;8.40;;;2.30;99.90;;;;;;5067883;28;20537;-80
2022/01/08 01:57:48;;;;;;;12.13;7.80;;;2.30;99.90;;;;;;5074597;28;20569;-80
2022/01/08 02:00:16;;;;;;;8.60;6.55;;;2.20;99.90;;;;;;5070294;28;21143;-80
2022/01/08 02:02:42;;;;;;;14.33;9.00;;;2.20;99.90;;;;;;5078387;28;20213;-79
2022/01/08 02:05:10;;;;;;;13.93;7.47;;;2.10;99.90;;;;;;5078503;28;20431;-80
2022/01/08 02:07:37;;;;;;;9.60;7.47;;;2.00;99.90;;;;;;5077497;28;20451;-79
2022/01/08 02:10:07;;;;;;;15.13;8.07;;;2.00;99.90;;;;;;5077889;28;20284;-79
2022/01/08 02:12:34;;;;;;;12.35;7.15;;;1.90;99.90;;;;;;5078910;28;20461;-80
2022/01/08 02:15:02;;;;;;;12.80;7.73;;;1.80;99.90;;;;;;5069133;28;20204;-80
2022/01/08 02:17:28;;;;;;;11.48;8.25;;;1.80;99.90;;;;;;5056988;28;20448;-80
2022/01/08 02:19:57;;;;;;;10.13;6.40;;;1.80;99.90;;;;;;5071829;28;20204;-80
2022/01/08 02:22:23;;;;;;;14.80;8.00;;;1.80;99.90;;;;;;5056414;28;20448;-79
2022/01/08 02:24:51;;;;;;;15.57;8.85;;;1.80;99.90;;;;;;5056551;28;20451;-79
2022/01/08 02:27:18;;;;;;;12.63;7.53;;;1.70;99.90;;;;;;5057035;28;20272;-79
2022/01/08 02:29:46;;;;;;;11.37;7.33;;;1.70;99.90;;;;;;5057174;28;20553;-80
2022/01/08 02:32:15;;;;;;;14.67;7.83;;;1.60;99.90;;;;;;5056956;28;20478;-80
2022/01/08 02:34:43;;;;;;;15.32;9.68;;;1.70;99.90;;;;;;5056937;28;20456;-78
2022/01/08 02:37:12;;;;;;;11.68;8.80;;;1.70;99.90;;;;;;5057532;28;20556;-79
2022/01/08 02:39:41;;;;;;;12.05;8.95;;;1.70;99.90;;;;;;5056586;28;20218;-80
2022/01/08 02:42:11;;;;;;;12.90;8.97;;;1.60;99.90;;;;;;5056042;28;20205;-80
2022/01/08 02:44:38;;;;;;;12.40;8.63;;;1.60;99.90;;;;;;5057616;28;20458;-80
2022/01/08 02:47:05;;;;;;;16.30;9.90;;;1.60;99.90;;;;;;5059350;28;20452;-80
2022/01/08 02:49:33;;;;;;;11.85;8.73;;;1.50;99.90;;;;;;5061026;28;20576;-80
2022/01/08 02:52:01;;;;;;;13.43;9.10;;;1.50;99.90;;;;;;5060840;28;20205;-80
2022/01/08 02:54:29;;;;;;;16.50;9.65;;;1.50;99.90;;;;;;5060539;28;20200;-78
2022/01/08 02:56:56;;;;;;;14.53;8.30;;;1.60;99.90;;;;;;5061268;28;20223;-79
2022/01/08 02:59:23;;;;;;;15.02;9.50;;;1.60;99.90;;;;;;5060842;28;21004;-79
2022/01/08 03:01:50;;;;;;;11.87;8.57;;;1.50;99.90;;;;;;5060440;28;20211;-79
2022/01/08 03:04:16;;;;;;;13.23;8.65;;;1.40;99.90;;;;;;5060459;28;20587;-78
2022/01/08 03:06:43;;;;;;;12.65;8.57;;;1.40;99.90;;;;;;5060618;28;20576;-80
2022/01/08 03:09:10;;;;;;;10.68;9.18;;;1.40;99.90;;;;;;5060187;28;20220;-80
2022/01/08 03:11:39;;;;;;;11.32;9.20;;;1.40;99.90;;;;;;5059520;28;20570;-80
2022/01/08 03:14:06;;;;;;;14.98;10.70;;;1.40;99.90;;;;;;5063487;28;20259;-80
2022/01/08 03:16:33;;;;;;;17.83;11.20;;;1.40;99.90;;;;;;5061499;28;20209;-79
2022/01/08 03:19:07;;;;;;;15.40;11.85;;;1.40;99.90;;;;;;5062577;28;20992;-79
2022/01/08 03:21:36;;;;;;;19.17;10.45;;;1.40;99.90;;;;;;5065862;28;20553;-81
2022/01/08 03:24:06;;;;;;;19.53;11.53;;;1.40;99.90;;;;;;5064023;28;20203;-81
2022/01/08 03:26:32;;;;;;;15.43;10.70;;;1.40;99.90;;;;;;5064130;28;20865;-81
2022/01/08 03:29:01;;;;;;;12.93;10.57;;;1.40;99.90;;;;;;5062969;28;20304;-81
2022/01/08 03:31:27;;;;;;;14.67;9.83;;;1.50;99.90;;;;;;5063468;28;20237;-81
2022/01/08 03:33:55;;;;;;;20.13;12.02;;;1.50;99.90;;;;;;5063580;28;20455;-81
2022/01/08 03:36:23;;;;;;;20.42;13.30;;;1.60;99.90;;;;;;5063058;28;20220;-81
2022/01/08 03:38:51;;;;;;;15.73;10.50;;;1.60;99.90;;;;;;5062338;28;20224;-81
2022/01/08 03:41:19;;;;;;;17.50;11.53;;;1.70;99.90;;;;;;5062727;28;20201;-82
2022/01/08 03:43:46;;;;;;;19.45;11.60;;;1.70;99.90;;;;;;5077968;28;20803;-81
2022/01/08 03:46:14;;;;;;;17.43;11.03;;;1.70;99.90;;;;;;5084375;28;20201;-82
2022/01/08 03:48:46;;;;;;;19.40;11.13;;;1.60;99.90;;;;;;5082527;28;20473;-81
2022/01/08 03:51:15;;;;;;;17.90;11.80;;;1.60;99.90;;;;;;5087350;28;20557;-82
2022/01/08 03:53:44;;;;;;;15.60;10.23;;;1.60;99.90;;;;;;5082128;28;20204;-80
2022/01/08 03:56:10;;;;;;;14.20;10.32;;;1.60;99.90;;;;;;5063497;28;20459;-81
2022/01/08 03:58:37;;;;;;;15.30;11.73;;;1.60;99.90;;;;;;5061545;28;20243;-82
2022/01/08 04:01:04;;;;;;;16.40;12.60;;;1.60;99.90;;;;;;5060913;28;20212;-80
2022/01/08 04:03:33;;;;;;;27.23;14.18;;;1.70;99.90;;;;;;5061817;28;20225;-81
2022/01/08 04:05:59;;;;;;;19.00;12.40;;;1.60;99.90;;;;;;5061501;28;20215;-82
2022/01/08 04:08:26;;;;;;;20.88;12.35;;;1.70;99.90;;;;;;5061472;28;20229;-82
2022/01/08 04:10:53;;;;;;;24.15;16.10;;;1.70;99.90;;;;;;5061327;28;20728;-81
2022/01/08 04:13:23;;;;;;;21.23;15.18;;;1.70;99.90;;;;;;5061798;28;20668;-81
2022/01/08 04:15:54;;;;;;;24.38;15.70;;;1.90;99.90;;;;;;5061626;28;20216;-82
2022/01/08 04:18:21;;;;;;;28.63;16.90;;;2.00;99.90;;;;;;5062184;28;20224;-81
2022/01/08 04:21:07;;;;;;;20.90;14.23;;;2.10;99.90;;;;;;5079644;28;20459;-81
2022/01/08 04:23:34;;;;;;;23.20;14.40;;;2.10;99.90;;;;;;5080612;28;20592;-82
2022/01/08 04:26:00;;;;;;;26.37;16.13;;;2.10;99.90;;;;;;5080622;28;20550;-82
2022/01/08 04:28:27;;;;;;;22.88;14.27;;;2.00;99.90;;;;;;5077225;28;20474;-80
2022/01/08 04:30:54;;;;;;;21.40;12.95;;;2.00;99.90;;;;;;5062577;28;20231;-81
2022/01/08 04:33:21;;;;;;;16.20;11.90;;;2.00;99.90;;;;;;5059399;28;20206;-81
2022/01/08 04:35:49;;;;;;;20.80;14.13;;;1.90;99.90;;;;;;5075211;28;20898;-81
2022/01/08 04:38:17;;;;;;;17.73;13.25;;;1.90;99.90;;;;;;5074309;28;20520;-81
2022/01/08 04:40:44;;;;;;;21.30;13.00;;;1.90;99.90;;;;;;5060718;28;20244;-81
2022/01/08 04:43:10;;;;;;;19.50;12.80;;;1.80;99.90;;;;;;5059926;28;20520;-81
2022/01/08 04:45:37;;;;;;;26.02;15.20;;;1.70;99.90;;;;;;5059744;28;20691;-81
2022/01/08 04:48:06;;;;;;;19.60;12.20;;;1.70;99.90;;;;;;5070185;28;20246;-81
2022/01/08 04:50:33;;;;;;;16.70;12.50;;;1.70;99.90;;;;;;5077633;28;20212;-81
2022/01/08 04:53:01;;;;;;;19.13;13.23;;;1.60;99.90;;;;;;5060344;28;20577;-81
2022/01/08 04:55:28;;;;;;;20.30;15.30;;;1.60;99.90;;;;;;5059285;28;20967;-78
2022/01/08 04:57:55;;;;;;;22.75;14.50;;;1.60;99.90;;;;;;5064487;28;20480;-80
2022/01/08 05:00:22;;;;;;;22.20;14.03;;;1.60;99.90;;;;;;5069255;28;20203;-81
2022/01/08 05:02:50;;;;;;;25.13;17.17;;;1.60;99.90;;;;;;5081602;28;20607;-81
2022/01/08 05:05:17;;;;;;;25.70;17.38;;;1.50;99.90;;;;;;5061880;28;20198;-83
2022/01/08 05:07:44;;;;;;;29.65;18.60;;;1.50;99.90;;;;;;5074636;28;20223;-81
2022/01/08 05:10:12;;;;;;;22.30;16.25;;;1.50;99.90;;;;;;5078155;28;20235;-81
2022/01/08 05:12:40;;;;;;;24.08;15.98;;;1.50;99.90;;;;;;5060856;28;20197;-81
2022/01/08 05:15:07;;;;;;;25.48;17.02;;;1.40;99.90;;;;;;5059413;28;20204;-81
2022/01/08 05:17:35;;;;;;;19.80;14.60;;;1.40;99.90;;;;;;5070723;28;20215;-82
2022/01/08 05:20:05;;;;;;;24.98;14.35;;;1.40;99.90;;;;;;5058683;28;20448;-81
2022/01/08 05:22:48;;;;;;;20.30;13.80;;;1.50;99.90;;;;;;5064685;28;20227;-81
2022/01/08 05:25:17;;;;;;;20.45;14.65;;;1.40;99.90;;;;;;5077607;28;20188;-79
2022/01/08 05:27:44;;;;;;;20.48;12.93;;;1.40;99.90;;;;;;5060856;28;20225;-80
2022/01/08 05:30:12;;;;;;;25.33;17.75;;;1.30;99.90;;;;;;5060228;28;20225;-81
2022/01/08 05:32:39;;;;;;;24.65;17.17;;;1.30;99.90;;;;;;5073227;28;20207;-82
2022/01/08 05:35:06;;;;;;;22.85;14.57;;;1.20;99.90;;;;;;5077921;28;20204;-81
2022/01/08 05:37:33;;;;;;;21.83;15.27;;;1.20;99.90;;;;;;5058535;28;20202;-83
2022/01/08 05:40:00;;;;;;;21.13;14.30;;;1.10;99.90;;;;;;5063779;28;20595;-81
2022/01/08 05:42:28;;;;;;;22.10;15.57;;;1.10;99.90;;;;;;5073618;28;20209;-81
2022/01/08 05:44:55;;;;;;;21.58;15.77;;;1.00;99.90;;;;;;5077607;28;20211;-81
2022/01/08 05:47:22;;;;;;;26.83;16.70;;;1.10;99.90;;;;;;5070085;28;20208;-82
2022/01/08 05:49:49;;;;;;;21.52;14.85;;;1.00;99.90;;;;;;5061112;28;20463;-81
2022/01/08 05:52:16;;;;;;;26.05;15.40;;;1.00;99.90;;;;;;5073610;28;20665;-79
2022/01/08 05:54:43;;;;;;;21.88;14.07;;;1.00;99.90;;;;;;5059450;28;20200;-80
2022/01/08 05:57:10;;;;;;;23.70;17.60;;;1.00;99.90;;;;;;5060546;28;20193;-81
2022/01/08 05:59:38;;;;;;;25.90;17.05;;;1.00;99.90;;;;;;5062487;28;20245;-81
2022/01/08 06:02:08;;;;;;;28.98;19.17;;;1.10;99.90;;;;;;5062098;28;20194;-80
2022/01/08 06:04:35;;;;;;;27.50;19.27;;;1.10;99.90;;;;;;5074879;28;20213;-80
2022/01/08 06:07:02;;;;;;;37.10;21.40;;;1.10;99.90;;;;;;5069680;28;20213;-79
2022/01/08 06:09:28;;;;;;;39.33;22.25;;;1.20;99.90;;;;;;5076399;28;20216;-80
2022/01/08 06:11:55;;;;;;;31.23;21.30;;;1.20;99.90;;;;;;5074594;28;20225;-80
2022/01/08 06:14:22;;;;;;;30.92;21.38;;;1.10;99.90;;;;;;5075326;28;20455;-81
2022/01/08 06:16:50;;;;;;;34.13;22.63;;;1.10;99.90;;;;;;5060133;28;20216;-81
2022/01/08 06:19:18;;;;;;;33.33;21.60;;;1.10;99.90;;;;;;5056013;28;20475;-80
2022/01/08 06:21:45;;;;;;;34.58;21.60;;;1.10;99.90;;;;;;5054342;28;20203;-79
2022/01/08 06:24:11;;;;;;;33.50;22.25;;;1.20;99.90;;;;;;5073977;28;20672;-81
2022/01/08 06:26:38;;;;;;;32.20;21.90;;;1.30;99.90;;;;;;5072396;28;20205;-80
2022/01/08 06:29:05;;;;;;;37.90;24.88;;;1.20;99.90;;;;;;5073807;28;20608;-80
2022/01/08 06:31:32;;;;;;;30.95;22.60;;;1.10;99.90;;;;;;5055889;28;20229;-80
2022/01/08 06:34:00;;;;;;;30.10;20.63;;;1.10;99.90;;;;;;5054906;28;20212;-79
2022/01/08 06:36:27;;;;;;;28.10;19.15;;;1.10;99.90;;;;;;5067735;28;20696;-78
2022/01/08 06:38:54;;;;;;;31.80;21.13;;;1.10;99.90;;;;;;5070905;28;20219;-79
2022/01/08 06:41:21;;;;;;;33.60;18.13;;;1.10;99.90;;;;;;5056569;28;20579;-80
2022/01/08 06:43:48;;;;;;;32.85;20.67;;;1.10;99.90;;;;;;5054839;28;20208;-80
2022/01/08 06:46:15;;;;;;;31.58;20.85;;;1.20;99.90;;;;;;5055022;28;20208;-80
2022/01/08 06:48:42;;;;;;;31.30;20.52;;;1.20;99.90;;;;;;5055071;28;20217;-81
2022/01/08 06:51:10;;;;;;;27.33;19.10;;;1.10;99.90;;;;;;5067608;28;20219;-80
2022/01/08 06:53:37;;;;;;;32.63;19.50;;;1.10;99.90;;;;;;5071589;28;20275;-80
2022/01/08 06:56:05;;;;;;;28.55;18.42;;;1.10;99.90;;;;;;5075065;28;20196;-80
2022/01/08 06:58:31;;;;;;;27.88;18.80;;;1.10;99.90;;;;;;5075153;28;20224;-80
2022/01/08 07:00:58;;;;;;;35.07;20.80;;;1.20;99.90;;;;;;5061947;28;20194;-80
2022/01/08 07:03:25;;;;;;;34.63;20.08;;;1.20;99.90;;;;;;5054489;28;20974;-80
2022/01/08 07:05:52;;;;;;;29.70;21.10;;;1.30;99.90;;;;;;5070735;28;20204;-80
2022/01/08 07:08:20;;;;;;;32.47;21.67;;;1.30;99.90;;;;;;5075010;28;20470;-80
2022/01/08 07:10:47;;;;;;;28.73;21.48;;;1.30;99.90;;;;;;5062172;28;20229;-80
2022/01/08 07:13:14;;;;;;;32.17;21.45;;;1.30;99.90;;;;;;5066437;28;20204;-79
2022/01/08 07:15:41;;;;;;;32.58;24.98;;;1.30;99.90;;;;;;5075394;28;20201;-80
2022/01/08 07:18:07;;;;;;;30.65;22.02;;;1.30;99.90;;;;;;5063962;28;20592;-79
2022/01/08 07:20:34;;;;;;;34.40;23.25;;;1.40;99.90;;;;;;5063481;28;20193;-79
2022/01/08 07:23:01;;;;;;;38.75;24.92;;;1.40;99.90;;;;;;5065056;28;20212;-79
2022/01/08 07:25:29;;;;;;;34.30;23.63;;;1.50;99.90;;;;;;5066469;28;20657;-78
2022/01/08 07:27:56;;;;;;;38.00;24.80;;;1.40;99.90;;;;;;5054941;28;20481;-79
2022/01/08 07:30:23;;;;;;;39.03;25.00;;;1.50;99.90;;;;;;5065490;28;20216;-80
2022/01/08 07:32:51;;;;;;;43.23;25.00;;;1.60;99.90;;;;;;5063554;28;20202;-80
2022/01/08 07:35:21;;;;;;;32.65;22.88;;;1.60;99.90;;;;;;5073988;28;20461;-80
2022/01/08 07:37:50;;;;;;;31.33;22.23;;;1.60;99.90;;;;;;5083166;28;20646;-80
2022/01/08 07:40:17;;;;;;;27.17;20.02;;;1.60;99.90;;;;;;5068815;28;20502;-82
2022/01/08 07:42:45;;;;;;;34.17;23.65;;;1.60;99.90;;;;;;5067539;28;20213;-79
2022/01/08 07:45:12;;;;;;;28.70;21.85;;;1.70;99.90;;;;;;5067889;28;20209;-79
2022/01/08 07:47:39;;;;;;;35.83;24.55;;;1.70;99.90;;;;;;5076304;28;20205;-79
2022/01/08 07:50:07;;;;;;;39.28;25.08;;;1.70;99.90;;;;;;5063699;28;20220;-79
2022/01/08 07:52:34;;;;;;;33.97;20.98;;;1.80;99.90;;;;;;5067739;28;20218;-80
2022/01/08 07:55:01;;;;;;;36.13;22.90;;;1.80;99.90;;;;;;5069333;28;20197;-79
2022/01/08 07:57:28;;;;;;;32.50;22.60;;;1.80;99.90;;;;;;5063877;28;20240;-79
2022/01/08 07:59:56;;;;;;;36.72;21.25;;;1.80;99.90;;;;;;5063718;28;20451;-80
2022/01/08 08:02:23;;;;;;;32.58;22.02;;;1.80;99.90;;;;;;5066951;28;20200;-79
2022/01/08 08:04:50;;;;;;;32.67;23.25;;;1.80;99.90;;;;;;5069013;28;20259;-80
2022/01/08 08:07:28;;;;;;;33.33;21.52;;;1.90;99.90;;;;;;5065844;28;20208;-80
2022/01/08 08:09:55;;;;;;;32.57;22.70;;;1.90;99.90;;;;;;5066922;28;20742;-79
2022/01/08 08:12:22;;;;;;;32.93;21.77;;;2.00;99.90;;;;;;5068501;28;20494;-80
2022/01/08 08:14:49;;;;;;;37.28;22.80;;;2.00;99.90;;;;;;5073859;28;20490;-80
2022/01/08 08:17:17;;;;;;;40.83;21.00;;;2.00;99.90;;;;;;5064062;28;20283;-78
2022/01/08 08:19:44;;;;;;;35.03;21.87;;;2.10;99.90;;;;;;5066408;28;20220;-79
2022/01/08 08:22:11;;;;;;;39.57;21.80;;;2.20;99.90;;;;;;5061616;28;20451;-79
2022/01/08 08:24:37;;;;;;;30.47;21.40;;;2.30;99.90;;;;;;5066613;28;20447;-79
2022/01/08 08:27:05;;;;;;;32.10;20.73;;;2.40;99.90;;;;;;5064841;28;20462;-79
2022/01/08 08:29:31;;;;;;;43.35;23.60;;;2.50;99.90;;;;;;5069496;28;20486;-79
2022/01/08 08:31:58;;;;;;;35.45;20.42;;;2.60;99.90;;;;;;5072903;28;20216;-79
2022/01/08 08:34:26;;;;;;;31.13;19.80;;;2.70;99.90;;;;;;5057649;28;20201;-79
2022/01/08 08:36:53;;;;;;;26.67;19.23;;;2.80;99.90;;;;;;5057030;28;20458;-79
2022/01/08 08:39:20;;;;;;;32.00;21.90;;;2.80;99.90;;;;;;5056791;28;20470;-79
2022/01/08 08:41:47;;;;;;;34.63;20.50;;;2.90;99.90;;;;;;5059657;28;20455;-80
2022/01/08 08:44:14;;;;;;;31.07;19.40;;;2.80;99.90;;;;;;5066882;28;20458;-78
2022/01/08 08:46:40;;;;;;;24.43;18.50;;;2.90;99.90;;;;;;5062860;28;20455;-79
2022/01/08 08:49:07;;;;;;;33.70;20.63;;;2.90;99.90;;;;;;5056908;28;20468;-79
2022/01/08 08:51:35;;;;;;;26.87;17.53;;;2.90;99.90;;;;;;5069080;28;20479;-79
2022/01/08 08:54:02;;;;;;;26.60;17.20;;;2.90;99.90;;;;;;5057252;28;20448;-79
2022/01/08 08:56:29;;;;;;;28.83;18.43;;;2.90;99.90;;;;;;5056884;28;20456;-79
2022/01/08 08:58:56;;;;;;;29.27;18.80;;;2.90;99.90;;;;;;5056258;28;20484;-79
2022/01/08 09:01:23;;;;;;;25.73;18.97;;;2.90;99.90;;;;;;5067346;28;20451;-79
2022/01/08 09:03:50;;;;;;;25.13;17.90;;;3.00;99.90;;;;;;5072595;28;20814;-79
2022/01/08 09:06:18;;;;;;;27.13;18.63;;;3.00;99.90;;;;;;5060875;28;20448;-78
2022/01/08 09:08:47;;;;;;;28.30;17.73;;;3.10;99.90;;;;;;5079569;28;20502;-78
2022/01/08 09:11:14;;;;;;;28.17;17.70;;;3.30;99.90;;;;;;5074378;28;20912;-80
2022/01/08 09:13:41;;;;;;;22.50;16.40;;;3.30;99.90;;;;;;5060836;28;20448;-79
2022/01/08 09:16:08;;;;;;;26.00;15.73;;;3.30;99.90;;;;;;5056557;28;20635;-80
2022/01/08 09:18:34;;;;;;;21.53;15.33;;;3.30;99.90;;;;;;5063386;28;20480;-79
2022/01/08 09:21:01;;;;;;;23.23;15.00;;;3.40;99.90;;;;;;5064880;28;20451;-79
2022/01/08 09:23:28;;;;;;;26.67;16.35;;;3.40;99.90;;;;;;5071017;28;20530;-79
2022/01/08 09:25:56;;;;;;;27.23;15.80;;;3.30;99.90;;;;;;5069134;28;20805;-79
2022/01/08 09:28:23;;;;;;;27.27;17.27;;;3.20;99.90;;;;;;5074588;28;20471;-79
2022/01/08 09:30:50;;;;;;;33.30;20.10;;;3.30;99.90;;;;;;5066051;28;20456;-79
2022/01/08 09:33:17;;;;;;;17.80;12.93;;;3.30;99.90;;;;;;5057229;28;20859;-78
2022/01/08 09:35:44;;;;;;;24.17;15.00;;;3.50;99.90;;;;;;5054870;28;20487;-80
2022/01/08 09:38:10;;;;;;;22.53;14.07;;;3.60;99.90;;;;;;5066832;28;20467;-80
2022/01/08 09:40:37;;;;;;;21.83;13.40;;;3.70;99.90;;;;;;5066984;28;20459;-79
2022/01/08 09:43:05;;;;;;;23.33;15.27;;;3.70;99.90;;;;;;5054963;28;20452;-79
2022/01/08 09:45:32;;;;;;;24.57;16.00;;;3.60;99.90;;;;;;5053969;28;20455;-80
2022/01/08 09:47:59;;;;;;;30.20;14.97;;;3.70;99.90;;;;;;5057570;28;20851;-80
2022/01/08 09:50:26;;;;;;;19.67;13.80;;;3.60;99.90;;;;;;5064719;28;20455;-80
2022/01/08 09:52:57;;;;;;;21.03;13.50;;;3.70;99.90;;;;;;5066029;28;20529;-80
2022/01/08 09:55:24;;;;;;;25.43;14.40;;;3.90;99.90;;;;;;5055268;28;20460;-80
2022/01/08 09:57:52;;;;;;;26.73;15.07;;;3.80;99.90;;;;;;5073404;28;20466;-78
2022/01/08 10:00:24;;;;;;;21.73;13.80;;;3.80;99.90;;;;;;5062629;28;21054;-79
2022/01/08 10:02:52;;;;;;;29.17;14.47;;;3.80;99.90;;;;;;5073218;28;20438;-81
2022/01/08 10:05:19;;;;;;;20.97;13.93;;;3.90;99.90;;;;;;5059854;28;21157;-81
2022/01/08 10:08:00;;;;;;;29.23;13.87;;;4.00;99.90;;;;;;5063542;28;20466;-80
2022/01/08 10:10:28;;;;;;;22.03;13.30;;;3.90;99.90;;;;;;5068357;28;20452;-79
2022/01/08 10:12:58;;;;;;;27.80;14.93;;;3.80;99.90;;;;;;5070859;28;20528;-81
2022/01/08 10:18:20;;;;;;;19.17;12.67;;;3.90;99.90;;;;;;5067716;28;20509;-80
2022/01/08 10:20:49;;;;;;;20.87;13.60;;;3.90;99.90;;;;;;5064947;28;20460;-80
2022/01/08 10:23:18;;;;;;;22.20;12.50;;;3.90;99.90;;;;;;5060831;28;20483;-79
2022/01/08 10:25:57;;;;;;;16.43;12.63;;;3.90;99.90;;;;;;5066139;28;20447;-79
2022/01/08 10:28:39;;;;;;;22.37;13.73;;;4.00;99.90;;;;;;5067812;28;20477;-81
2022/01/08 10:31:13;;;;;;;24.20;13.90;;;4.10;99.90;;;;;;5065589;28;20887;-79
2022/01/08 10:33:41;;;;;;;23.63;14.30;;;4.00;99.90;;;;;;5056344;28;21005;-80
2022/01/08 10:36:09;;;;;;;25.67;13.10;;;4.10;99.90;;;;;;5061479;28;20451;-81
2022/01/08 10:38:35;;;;;;;19.60;11.87;;;4.20;99.90;;;;;;5069156;28;20470;-81
2022/01/08 10:41:04;;;;;;;27.40;16.20;;;4.30;99.90;;;;;;5065526;28;20449;-80
2022/01/08 10:43:33;;;;;;;17.87;12.10;;;4.30;99.90;;;;;;5062930;28;20451;-80
2022/01/08 10:46:12;;;;;;;19.23;11.30;;;4.30;99.90;;;;;;5064246;28;20460;-80
2022/01/08 10:48:42;;;;;;;24.83;12.60;;;4.50;99.90;;;;;;5061063;28;20475;-79
2022/01/08 10:51:17;;;;;;;17.93;11.70;;;4.50;99.90;;;;;;5058349;28;20446;-81
2022/01/08 10:53:56;;;;;;;26.67;12.07;;;4.60;99.90;;;;;;5060657;28;21173;-81
2022/01/08 10:56:26;;;;;;;18.57;9.27;;;4.60;99.90;;;;;;5056146;28;20455;-80
2022/01/08 10:58:59;;;;;;;18.67;10.80;;;4.50;99.90;;;;;;5063967;28;20476;-81
2022/01/08 11:01:51;;;;;;;19.60;11.17;;;4.60;99.90;;;;;;5057995;28;20449;-80
2022/01/08 11:04:20;;;;;;;24.80;12.53;;;4.40;99.90;;;;;;5064589;28;20512;-81
2022/01/08 11:06:53;;;;;;;23.10;10.97;;;4.60;99.90;;;;;;5061320;28;20456;-80
2022/01/08 11:09:21;;;;;;;20.47;11.13;;;4.60;99.90;;;;;;5059573;28;20477;-81
2022/01/08 11:11:49;;;;;;;20.33;10.33;;;4.70;99.90;;;;;;5062394;28;20459;-80
2022/01/08 11:14:44;;;;;;;15.43;9.63;;;4.70;99.90;;;;;;5074068;28;20452;-80
2022/01/08 11:17:13;;;;;;;19.30;10.63;;;4.80;99.90;;;;;;5057693;28;20446;-80
2022/01/08 11:19:44;;;;;;;21.10;10.20;;;4.80;99.90;;;;;;5058258;28;20476;-80
2022/01/08 11:22:13;;;;;;;17.70;11.07;;;4.80;99.90;;;;;;5057765;28;20452;-81
2022/01/08 11:24:45;;;;;;;16.60;9.53;;;4.90;99.90;;;;;;5057602;28;20452;-80
2022/01/08 11:27:13;;;;;;;14.40;10.33;;;5.00;99.90;;;;;;5063514;28;20458;-80
2022/01/08 11:29:41;;;;;;;15.33;8.77;;;5.20;99.90;;;;;;5062236;28;20510;-81
2022/01/08 11:32:09;;;;;;;14.87;9.60;;;5.30;99.90;;;;;;5064331;28;20495;-81
2022/01/08 11:34:41;;;;;;;15.67;10.30;;;5.50;99.90;;;;;;5061759;28;20449;-81
2022/01/08 11:37:08;;;;;;;17.73;7.90;;;5.70;99.90;;;;;;5076921;28;20486;-80
2022/01/08 11:39:36;;;;;;;10.80;7.30;;;5.80;99.90;;;;;;5067864;28;20485;-80
2022/01/08 11:42:04;;;;;;;14.97;9.30;;;5.80;99.90;;;;;;5069205;28;20466;-80
2022/01/08 11:44:33;;;;;;;17.40;10.43;;;5.60;99.90;;;;;;5068646;28;20463;-81
2022/01/08 11:47:01;;;;;;;15.37;9.60;;;5.30;99.90;;;;;;5062333;28;20974;-81
2022/01/08 11:49:28;;;;;;;17.43;9.83;;;5.20;99.90;;;;;;5073756;28;20991;-79
2022/01/08 11:52:18;;;;;;;11.67;6.70;;;5.40;99.90;;;;;;5060013;28;20458;-81
2022/01/08 11:54:47;;;;;;;20.80;10.80;;;5.30;99.90;;;;;;5065745;28;20478;-82
2022/01/08 11:57:19;;;;;;;15.93;7.90;;;5.60;99.90;;;;;;5077891;28;20453;-83
2022/01/08 11:59:47;;;;;;;11.33;5.90;;;5.70;99.90;;;;;;5078289;28;20560;-82
2022/01/08 12:02:15;;;;;;;8.83;5.40;;;5.70;99.90;;;;;;5079770;28;20448;-82
2022/01/08 12:04:47;;;;;;;12.10;5.53;;;5.80;99.90;;;;;;5078041;28;20469;-81
2022/01/08 12:07:34;;;;;;;11.60;5.23;;;5.50;99.90;;;;;;5072414;28;20886;-80
2022/01/08 12:10:13;;;;;;;10.13;4.80;;;5.60;99.90;;;;;;5067283;28;20456;-81
2022/01/08 12:12:44;;;;;;;7.33;4.20;;;5.70;99.90;;;;;;5073120;28;21040;-82
2022/01/08 12:15:11;;;;;;;7.77;4.53;;;6.20;99.90;;;;;;5070239;28;20464;-82
2022/01/08 12:17:52;;;;;;;9.30;4.67;;;6.30;99.90;;;;;;5074283;28;20453;-83
2022/01/08 12:20:41;;;;;;;7.00;4.00;;;6.30;99.90;;;;;;5079959;28;20464;-81
2022/01/08 12:23:41;;;;;;;8.63;3.40;;;6.40;99.90;;;;;;5083189;28;20442;-82
2022/01/08 12:26:39;;;;;;;8.90;4.40;;;6.30;99.90;;;;;;5063962;28;20485;-83
2022/01/08 12:29:07;;;;;;;9.63;3.80;;;6.50;99.90;;;;;;5069043;28;20470;-82
2022/01/08 12:31:41;;;;;;;9.17;4.20;;;6.40;99.90;;;;;;5069442;28;20549;-82
2022/01/08 12:34:33;;;;;;;5.60;3.60;;;6.20;99.90;;;;;;5066495;28;20557;-83
2022/01/08 12:37:01;;;;;;;7.80;4.03;;;6.20;99.90;;;;;;5065997;28;20464;-82
2022/01/08 12:39:50;;;;;;;8.87;4.07;;;6.30;99.90;;;;;;5067271;28;20562;-81
2022/01/08 12:42:51;;;;;;;10.50;3.40;;;6.40;99.90;;;;;;5077560;28;20538;-80
2022/01/08 12:45:20;;;;;;;5.27;3.23;;;6.40;99.90;;;;;;5011696;28;21016;-83
2022/01/08 12:47:50;;;;;;;7.57;3.47;;;6.40;99.90;;;;;;5013118;28;20983;-83
2022/01/08 12:50:27;;;;;;;4.63;2.97;;;6.30;99.90;;;;;;5043077;28;20449;-81
2022/01/08 12:53:14;;;;;;;5.33;3.40;;;6.20;99.90;;;;;;5069048;28;20496;-81
2022/01/08 12:55:43;;;;;;;6.90;4.37;;;6.10;99.90;;;;;;5079950;28;20453;-81
2022/01/08 12:58:18;;;;;;;8.07;3.73;;;6.10;99.90;;;;;;5080229;28;20477;-83
2022/01/08 13:00:55;;;;;;;5.83;3.37;;;6.20;99.90;;;;;;5074298;28;20974;-81
2022/01/08 13:03:23;;;;;;;5.73;2.83;;;6.10;99.90;;;;;;5073517;28;20469;-81
2022/01/08 13:05:50;;;;;;;9.87;4.00;;;6.30;99.90;;;;;;5065782;28;20450;-81
2022/01/08 13:08:24;;;;;;;7.30;2.70;;;6.30;99.90;;;;;;5078066;28;20538;-82